sensor_id;sensor_type;location;lat;lon;timestamp;temperature;humidity
19622;DHT22;9958;33.196;-97.114;2024-01-15T00:01:04;-9.30;71.50
19622;DHT22;9958;33.196;-97.114;2024-01-15T00:03:32;-9.30;72.10
19622;DHT22;9958;33.196;-97.114;2024-01-15T00:06:03;-9.30;73.00
19622;DHT22;9958;33.196;-97.114;2024-01-15T00:08:31;-9.30;73.20
19622;DHT22;9958;33.196;-97.114;2024-01-15T00:10:59;-9.30;73.10
19622;DHT22;9958;33.196;-97.114;2024-01-15T00:13:28;-9.30;73.10
19622;DHT22;9958;33.196;-97.114;2024-01-15T00:15:56;-9.30;73.10
19622;DHT22;9958;33.196;-97.114;2024-01-15T00:18:25;-9.30;73.20
19622;DHT22;9958;33.196;-97.114;2024-01-15T00:20:53;-9.30;74.20
19622;DHT22;9958;33.196;-97.114;2024-01-15T00:23:23;-9.30;74.80
19622;DHT22;9958;33.196;-97.114;2024-01-15T00:25:51;-9.30;74.20
19622;DHT22;9958;33.196;-97.114;2024-01-15T00:28:20;-9.30;74.40
19622;DHT22;9958;33.196;-97.114;2024-01-15T00:30:48;-9.30;74.00
19622;DHT22;9958;33.196;-97.114;2024-01-15T00:33:16;-9.30;74.00
19622;DHT22;9958;33.196;-97.114;2024-01-15T00:35:45;-9.30;74.70
19622;DHT22;9958;33.196;-97.114;2024-01-15T00:38:13;-9.30;74.90
19622;DHT22;9958;33.196;-97.114;2024-01-15T00:40:43;-9.30;75.20
19622;DHT22;9958;33.196;-97.114;2024-01-15T00:43:11;-9.30;75.80
19622;DHT22;9958;33.196;-97.114;2024-01-15T00:45:40;-9.40;76.30
19622;DHT22;9958;33.196;-97.114;2024-01-15T00:48:08;-9.40;77.10
19622;DHT22;9958;33.196;-97.114;2024-01-15T00:50:36;-9.40;77.70
19622;DHT22;9958;33.196;-97.114;2024-01-15T00:53:04;-9.40;78.40
19622;DHT22;9958;33.196;-97.114;2024-01-15T00:55:33;-9.50;79.00
19622;DHT22;9958;33.196;-97.114;2024-01-15T00:58:04;-9.40;79.30
19622;DHT22;9958;33.196;-97.114;2024-01-15T01:00:32;-9.50;79.60
19622;DHT22;9958;33.196;-97.114;2024-01-15T01:03:00;-9.50;79.70
19622;DHT22;9958;33.196;-97.114;2024-01-15T01:05:29;-9.50;80.50
19622;DHT22;9958;33.196;-97.114;2024-01-15T01:07:57;-9.50;81.50
19622;DHT22;9958;33.196;-97.114;2024-01-15T01:10:25;-9.50;81.90
19622;DHT22;9958;33.196;-97.114;2024-01-15T01:12:54;-9.50;82.00
19622;DHT22;9958;33.196;-97.114;2024-01-15T01:15:24;-9.60;82.90
19622;DHT22;9958;33.196;-97.114;2024-01-15T01:17:52;-9.60;83.70
19622;DHT22;9958;33.196;-97.114;2024-01-15T01:20:20;-9.60;83.90
19622;DHT22;9958;33.196;-97.114;2024-01-15T01:22:48;-9.60;84.50
19622;DHT22;9958;33.196;-97.114;2024-01-15T01:25:17;-9.60;85.00
19622;DHT22;9958;33.196;-97.114;2024-01-15T01:27:45;-9.60;85.50
19622;DHT22;9958;33.196;-97.114;2024-01-15T01:30:14;-9.50;85.90
19622;DHT22;9958;33.196;-97.114;2024-01-15T01:32:43;-9.50;86.20
19622;DHT22;9958;33.196;-97.114;2024-01-15T01:35:13;-9.60;86.30
19622;DHT22;9958;33.196;-97.114;2024-01-15T01:37:41;-9.60;86.30
19622;DHT22;9958;33.196;-97.114;2024-01-15T01:40:10;-9.60;86.30
19622;DHT22;9958;33.196;-97.114;2024-01-15T01:42:38;-9.60;86.60
19622;DHT22;9958;33.196;-97.114;2024-01-15T01:45:07;-9.60;86.80
19622;DHT22;9958;33.196;-97.114;2024-01-15T01:47:36;-9.60;87.10
19622;DHT22;9958;33.196;-97.114;2024-01-15T01:50:07;-9.60;86.90
19622;DHT22;9958;33.196;-97.114;2024-01-15T01:52:36;-9.50;87.30
19622;DHT22;9958;33.196;-97.114;2024-01-15T01:55:05;-9.60;87.50
19622;DHT22;9958;33.196;-97.114;2024-01-15T01:57:34;-9.60;88.40
19622;DHT22;9958;33.196;-97.114;2024-01-15T02:00:04;-9.60;89.00
19622;DHT22;9958;33.196;-97.114;2024-01-15T02:02:33;-9.60;90.00
19622;DHT22;9958;33.196;-97.114;2024-01-15T02:05:02;-9.80;90.20
19622;DHT22;9958;33.196;-97.114;2024-01-15T02:07:35;-9.80;90.60
19622;DHT22;9958;33.196;-97.114;2024-01-15T02:10:04;-9.80;90.90
19622;DHT22;9958;33.196;-97.114;2024-01-15T02:12:32;-9.80;91.20
19622;DHT22;9958;33.196;-97.114;2024-01-15T02:15:01;-9.80;91.60
19622;DHT22;9958;33.196;-97.114;2024-01-15T02:17:29;-9.80;91.80
19622;DHT22;9958;33.196;-97.114;2024-01-15T02:19:58;-9.70;92.10
19622;DHT22;9958;33.196;-97.114;2024-01-15T02:22:26;-9.80;92.40
19622;DHT22;9958;33.196;-97.114;2024-01-15T02:24:56;-9.80;92.70
19622;DHT22;9958;33.196;-97.114;2024-01-15T02:27:25;-9.90;93.20
19622;DHT22;9958;33.196;-97.114;2024-01-15T02:29:54;-9.90;93.50
19622;DHT22;9958;33.196;-97.114;2024-01-15T02:32:23;-9.90;93.80
19622;DHT22;9958;33.196;-97.114;2024-01-15T02:34:51;-10.00;94.10
19622;DHT22;9958;33.196;-97.114;2024-01-15T02:37:19;-10.00;94.30
19622;DHT22;9958;33.196;-97.114;2024-01-15T02:39:48;-10.00;94.80
19622;DHT22;9958;33.196;-97.114;2024-01-15T02:42:18;-10.00;95.20
19622;DHT22;9958;33.196;-97.114;2024-01-15T02:44:46;-10.00;95.40
19622;DHT22;9958;33.196;-97.114;2024-01-15T02:47:15;-10.10;95.80
19622;DHT22;9958;33.196;-97.114;2024-01-15T02:49:44;-10.00;96.10
19622;DHT22;9958;33.196;-97.114;2024-01-15T02:52:12;-10.00;96.30
19622;DHT22;9958;33.196;-97.114;2024-01-15T02:54:40;-10.10;96.40
19622;DHT22;9958;33.196;-97.114;2024-01-15T02:57:09;-10.10;96.80
19622;DHT22;9958;33.196;-97.114;2024-01-15T02:59:39;-10.10;97.10
19622;DHT22;9958;33.196;-97.114;2024-01-15T03:02:07;-10.10;97.10
19622;DHT22;9958;33.196;-97.114;2024-01-15T03:04:35;-10.20;97.10
19622;DHT22;9958;33.196;-97.114;2024-01-15T03:07:04;-10.10;97.50
19622;DHT22;9958;33.196;-97.114;2024-01-15T03:09:32;-10.20;97.60
19622;DHT22;9958;33.196;-97.114;2024-01-15T03:12:01;-10.20;97.80
19622;DHT22;9958;33.196;-97.114;2024-01-15T03:14:29;-10.10;98.00
19622;DHT22;9958;33.196;-97.114;2024-01-15T03:16:59;-10.10;98.30
19622;DHT22;9958;33.196;-97.114;2024-01-15T03:19:28;-10.10;98.60
19622;DHT22;9958;33.196;-97.114;2024-01-15T03:21:56;-10.10;98.60
19622;DHT22;9958;33.196;-97.114;2024-01-15T03:24:27;-10.10;98.90
19622;DHT22;9958;33.196;-97.114;2024-01-15T03:26:55;-10.10;98.90
19622;DHT22;9958;33.196;-97.114;2024-01-15T03:29:23;-10.10;99.00
19622;DHT22;9958;33.196;-97.114;2024-01-15T03:31:52;-10.10;99.30
19622;DHT22;9958;33.196;-97.114;2024-01-15T03:34:22;-10.10;99.50
19622;DHT22;9958;33.196;-97.114;2024-01-15T03:36:50;-10.10;99.60
19622;DHT22;9958;33.196;-97.114;2024-01-15T03:39:18;-10.10;99.60
19622;DHT22;9958;33.196;-97.114;2024-01-15T03:41:47;-10.10;99.50
19622;DHT22;9958;33.196;-97.114;2024-01-15T03:44:15;-10.10;99.70
19622;DHT22;9958;33.196;-97.114;2024-01-15T03:46:43;-10.10;99.90
19622;DHT22;9958;33.196;-97.114;2024-01-15T03:49:12;-10.10;99.90
19622;DHT22;9958;33.196;-97.114;2024-01-15T03:51:42;-10.10;99.90
19622;DHT22;9958;33.196;-97.114;2024-01-15T03:54:10;-10.10;99.90
19622;DHT22;9958;33.196;-97.114;2024-01-15T03:56:38;-10.20;99.90
19622;DHT22;9958;33.196;-97.114;2024-01-15T03:59:07;-10.20;99.90
19622;DHT22;9958;33.196;-97.114;2024-01-15T04:01:35;-10.20;99.90
19622;DHT22;9958;33.196;-97.114;2024-01-15T04:04:03;-10.20;99.90
19622;DHT22;9958;33.196;-97.114;2024-01-15T04:06:32;-10.20;99.90
19622;DHT22;9958;33.196;-97.114;2024-01-15T04:09:02;-10.20;99.90
19622;DHT22;9958;33.196;-97.114;2024-01-15T04:11:30;-10.20;99.90
19622;DHT22;9958;33.196;-97.114;2024-01-15T04:13:58;-10.20;99.90
19622;DHT22;9958;33.196;-97.114;2024-01-15T04:16:27;-10.20;99.90
19622;DHT22;9958;33.196;-97.114;2024-01-15T04:18:55;-10.20;99.90
19622;DHT22;9958;33.196;-97.114;2024-01-15T04:21:23;-10.20;99.90
19622;DHT22;9958;33.196;-97.114;2024-01-15T04:23:51;-10.10;99.90
19622;DHT22;9958;33.196;-97.114;2024-01-15T04:26:21;-10.10;99.90
19622;DHT22;9958;33.196;-97.114;2024-01-15T04:28:50;-10.20;99.90
19622;DHT22;9958;33.196;-97.114;2024-01-15T04:31:22;-10.20;99.90
19622;DHT22;9958;33.196;-97.114;2024-01-15T04:33:51;-10.20;99.90
19622;DHT22;9958;33.196;-97.114;2024-01-15T04:36:19;-10.20;99.90
19622;DHT22;9958;33.196;-97.114;2024-01-15T04:38:48;-10.20;99.90
19622;DHT22;9958;33.196;-97.114;2024-01-15T04:41:16;-10.20;99.90
19622;DHT22;9958;33.196;-97.114;2024-01-15T04:43:46;-10.20;99.90
19622;DHT22;9958;33.196;-97.114;2024-01-15T04:46:15;-10.10;99.90
19622;DHT22;9958;33.196;-97.114;2024-01-15T04:48:43;-10.10;99.90
19622;DHT22;9958;33.196;-97.114;2024-01-15T04:51:11;-10.10;99.90
19622;DHT22;9958;33.196;-97.114;2024-01-15T04:53:40;-10.10;99.90
19622;DHT22;9958;33.196;-97.114;2024-01-15T04:56:08;-10.10;99.90
19622;DHT22;9958;33.196;-97.114;2024-01-15T04:58:36;-10.20;99.90
19622;DHT22;9958;33.196;-97.114;2024-01-15T05:01:08;-10.10;99.90
19622;DHT22;9958;33.196;-97.114;2024-01-15T05:03:36;-10.10;99.90
19622;DHT22;9958;33.196;-97.114;2024-01-15T05:06:06;-10.10;99.90
19622;DHT22;9958;33.196;-97.114;2024-01-15T05:08:34;-10.10;99.90
19622;DHT22;9958;33.196;-97.114;2024-01-15T05:11:02;-10.10;99.90
19622;DHT22;9958;33.196;-97.114;2024-01-15T05:13:31;-10.10;99.90
19622;DHT22;9958;33.196;-97.114;2024-01-15T05:15:59;-10.20;99.90
19622;DHT22;9958;33.196;-97.114;2024-01-15T05:18:29;-10.20;99.90
19622;DHT22;9958;33.196;-97.114;2024-01-15T05:20:57;-10.20;99.90
19622;DHT22;9958;33.196;-97.114;2024-01-15T05:23:26;-10.20;99.90
19622;DHT22;9958;33.196;-97.114;2024-01-15T05:25:54;-10.20;99.90
19622;DHT22;9958;33.196;-97.114;2024-01-15T05:28:22;-10.30;99.90
19622;DHT22;9958;33.196;-97.114;2024-01-15T05:30:51;-10.30;99.90
19622;DHT22;9958;33.196;-97.114;2024-01-15T05:33:19;-10.30;99.90
19622;DHT22;9958;33.196;-97.114;2024-01-15T05:35:49;-10.30;99.90
19622;DHT22;9958;33.196;-97.114;2024-01-15T05:38:18;-10.30;99.90
19622;DHT22;9958;33.196;-97.114;2024-01-15T05:40:46;-10.40;99.90
19622;DHT22;9958;33.196;-97.114;2024-01-15T05:43:14;-10.30;99.90
19622;DHT22;9958;33.196;-97.114;2024-01-15T05:45:43;-10.40;99.90
19622;DHT22;9958;33.196;-97.114;2024-01-15T05:48:12;-10.30;99.90
19622;DHT22;9958;33.196;-97.114;2024-01-15T05:50:41;-10.30;99.90
19622;DHT22;9958;33.196;-97.114;2024-01-15T05:53:11;-10.40;99.90
19622;DHT22;9958;33.196;-97.114;2024-01-15T05:55:39;-10.30;99.90
19622;DHT22;9958;33.196;-97.114;2024-01-15T05:58:07;-10.30;99.90
19622;DHT22;9958;33.196;-97.114;2024-01-15T06:00:36;-10.30;99.90
19622;DHT22;9958;33.196;-97.114;2024-01-15T06:03:04;-10.40;99.90
19622;DHT22;9958;33.196;-97.114;2024-01-15T06:05:33;-10.40;99.90
19622;DHT22;9958;33.196;-97.114;2024-01-15T06:08:01;-10.40;99.90
19622;DHT22;9958;33.196;-97.114;2024-01-15T06:10:31;-10.50;99.90
19622;DHT22;9958;33.196;-97.114;2024-01-15T06:12:59;-10.50;99.90
19622;DHT22;9958;33.196;-97.114;2024-01-15T06:15:28;-10.50;99.90
19622;DHT22;9958;33.196;-97.114;2024-01-15T06:17:56;-10.50;99.90
19622;DHT22;9958;33.196;-97.114;2024-01-15T06:20:24;-10.50;99.90
19622;DHT22;9958;33.196;-97.114;2024-01-15T06:22:53;-10.50;99.90
19622;DHT22;9958;33.196;-97.114;2024-01-15T06:25:21;-10.50;99.90
19622;DHT22;9958;33.196;-97.114;2024-01-15T06:27:51;-10.50;99.90
19622;DHT22;9958;33.196;-97.114;2024-01-15T06:30:19;-10.50;99.90
19622;DHT22;9958;33.196;-97.114;2024-01-15T06:32:48;-10.50;99.90
19622;DHT22;9958;33.196;-97.114;2024-01-15T06:35:16;-10.60;99.90
19622;DHT22;9958;33.196;-97.114;2024-01-15T06:37:45;-10.60;99.90
19622;DHT22;9958;33.196;-97.114;2024-01-15T06:40:13;-10.50;99.90
19622;DHT22;9958;33.196;-97.114;2024-01-15T06:42:41;-10.60;99.90
19622;DHT22;9958;33.196;-97.114;2024-01-15T06:45:11;-10.60;99.90
19622;DHT22;9958;33.196;-97.114;2024-01-15T06:47:40;-10.60;99.90
19622;DHT22;9958;33.196;-97.114;2024-01-15T06:50:09;-10.60;99.90
19622;DHT22;9958;33.196;-97.114;2024-01-15T06:52:37;-10.70;99.90
19622;DHT22;9958;33.196;-97.114;2024-01-15T06:55:06;-10.60;99.90
19622;DHT22;9958;33.196;-97.114;2024-01-15T06:57:34;-10.70;99.90
19622;DHT22;9958;33.196;-97.114;2024-01-15T07:00:03;-10.70;99.90
19622;DHT22;9958;33.196;-97.114;2024-01-15T07:02:36;-10.60;99.90
19622;DHT22;9958;33.196;-97.114;2024-01-15T07:05:04;-10.60;99.90
19622;DHT22;9958;33.196;-97.114;2024-01-15T07:07:33;-10.60;99.90
19622;DHT22;9958;33.196;-97.114;2024-01-15T07:10:02;-10.60;99.90
19622;DHT22;9958;33.196;-97.114;2024-01-15T07:12:30;-10.60;99.90
19622;DHT22;9958;33.196;-97.114;2024-01-15T07:14:59;-10.60;99.90
19622;DHT22;9958;33.196;-97.114;2024-01-15T07:17:28;-10.60;99.90
19622;DHT22;9958;33.196;-97.114;2024-01-15T07:19:59;-10.70;99.90
19622;DHT22;9958;33.196;-97.114;2024-01-15T07:22:27;-10.60;99.90
19622;DHT22;9958;33.196;-97.114;2024-01-15T07:24:56;-10.60;99.90
19622;DHT22;9958;33.196;-97.114;2024-01-15T07:27:24;-10.60;99.70
19622;DHT22;9958;33.196;-97.114;2024-01-15T07:29:52;-10.70;99.30
19622;DHT22;9958;33.196;-97.114;2024-01-15T07:32:21;-10.70;99.00
19622;DHT22;9958;33.196;-97.114;2024-01-15T07:34:49;-10.70;99.30
19622;DHT22;9958;33.196;-97.114;2024-01-15T07:37:19;-10.80;99.80
19622;DHT22;9958;33.196;-97.114;2024-01-15T07:39:47;-10.70;99.90
19622;DHT22;9958;33.196;-97.114;2024-01-15T07:42:15;-10.90;99.90
19622;DHT22;9958;33.196;-97.114;2024-01-15T07:44:44;-10.80;99.90
19622;DHT22;9958;33.196;-97.114;2024-01-15T07:47:12;-10.80;99.90
19622;DHT22;9958;33.196;-97.114;2024-01-15T07:49:40;-10.90;99.90
19622;DHT22;9958;33.196;-97.114;2024-01-15T07:52:09;-10.90;99.90
19622;DHT22;9958;33.196;-97.114;2024-01-15T07:54:41;-10.90;99.70
19622;DHT22;9958;33.196;-97.114;2024-01-15T07:57:10;-11.00;99.60
19622;DHT22;9958;33.196;-97.114;2024-01-15T07:59:38;-11.00;99.60
19622;DHT22;9958;33.196;-97.114;2024-01-15T08:02:06;-11.00;99.80
19622;DHT22;9958;33.196;-97.114;2024-01-15T08:04:35;-11.00;99.70
19622;DHT22;9958;33.196;-97.114;2024-01-15T08:07:04;-11.00;99.80
19622;DHT22;9958;33.196;-97.114;2024-01-15T08:09:34;-11.00;99.60
19622;DHT22;9958;33.196;-97.114;2024-01-15T08:12:04;-11.00;99.70
19622;DHT22;9958;33.196;-97.114;2024-01-15T08:14:33;-10.90;99.70
19622;DHT22;9958;33.196;-97.114;2024-01-15T08:17:01;-10.90;99.70
19622;DHT22;9958;33.196;-97.114;2024-01-15T08:19:30;-10.90;99.70
19622;DHT22;9958;33.196;-97.114;2024-01-15T08:21:58;-11.10;99.40
19622;DHT22;9958;33.196;-97.114;2024-01-15T08:24:27;-11.10;99.60
19622;DHT22;9958;33.196;-97.114;2024-01-15T08:26:55;-11.10;99.60
19622;DHT22;9958;33.196;-97.114;2024-01-15T08:29:25;-11.10;99.80
19622;DHT22;9958;33.196;-97.114;2024-01-15T08:31:53;-11.00;99.90
19622;DHT22;9958;33.196;-97.114;2024-01-15T08:34:22;-11.10;99.90
19622;DHT22;9958;33.196;-97.114;2024-01-15T08:36:50;-11.10;99.90
19622;DHT22;9958;33.196;-97.114;2024-01-15T08:39:18;-11.10;99.90
19622;DHT22;9958;33.196;-97.114;2024-01-15T08:41:47;-11.10;99.90
19622;DHT22;9958;33.196;-97.114;2024-01-15T08:44:15;-11.20;99.90
19622;DHT22;9958;33.196;-97.114;2024-01-15T08:46:45;-11.20;99.90
19622;DHT22;9958;33.196;-97.114;2024-01-15T08:49:13;-11.10;99.90
19622;DHT22;9958;33.196;-97.114;2024-01-15T08:51:41;-11.10;99.90
19622;DHT22;9958;33.196;-97.114;2024-01-15T08:54:10;-11.20;99.90
19622;DHT22;9958;33.196;-97.114;2024-01-15T08:56:38;-11.10;99.90
19622;DHT22;9958;33.196;-97.114;2024-01-15T08:59:07;-11.10;99.90
19622;DHT22;9958;33.196;-97.114;2024-01-15T09:01:39;-11.10;99.90
19622;DHT22;9958;33.196;-97.114;2024-01-15T09:04:08;-11.10;99.90
19622;DHT22;9958;33.196;-97.114;2024-01-15T09:06:37;-11.10;99.90
19622;DHT22;9958;33.196;-97.114;2024-01-15T09:09:05;-11.10;99.90
19622;DHT22;9958;33.196;-97.114;2024-01-15T09:11:34;-11.10;99.90
19622;DHT22;9958;33.196;-97.114;2024-01-15T09:14:02;-11.10;99.90
19622;DHT22;9958;33.196;-97.114;2024-01-15T09:16:30;-11.00;99.90
19622;DHT22;9958;33.196;-97.114;2024-01-15T09:18:59;-11.10;99.90
19622;DHT22;9958;33.196;-97.114;2024-01-15T09:21:29;-11.00;99.90
19622;DHT22;9958;33.196;-97.114;2024-01-15T09:23:57;-11.00;99.90
19622;DHT22;9958;33.196;-97.114;2024-01-15T09:26:25;-11.00;99.90
19622;DHT22;9958;33.196;-97.114;2024-01-15T09:28:54;-11.00;99.90
19622;DHT22;9958;33.196;-97.114;2024-01-15T09:31:22;-10.90;99.90
19622;DHT22;9958;33.196;-97.114;2024-01-15T09:33:50;-10.90;99.90
19622;DHT22;9958;33.196;-97.114;2024-01-15T09:36:22;-10.90;99.90
19622;DHT22;9958;33.196;-97.114;2024-01-15T09:38:52;-10.90;99.90
19622;DHT22;9958;33.196;-97.114;2024-01-15T09:41:21;-11.00;99.90
19622;DHT22;9958;33.196;-97.114;2024-01-15T09:43:49;-11.00;99.90
19622;DHT22;9958;33.196;-97.114;2024-01-15T09:46:18;-10.90;99.90
19622;DHT22;9958;33.196;-97.114;2024-01-15T09:48:47;-11.00;99.90
19622;DHT22;9958;33.196;-97.114;2024-01-15T09:51:16;-11.00;99.90
19622;DHT22;9958;33.196;-97.114;2024-01-15T09:53:45;-10.90;99.90
19622;DHT22;9958;33.196;-97.114;2024-01-15T09:56:16;-11.00;99.90
19622;DHT22;9958;33.196;-97.114;2024-01-15T09:58:45;-11.00;99.90
19622;DHT22;9958;33.196;-97.114;2024-01-15T10:01:15;-11.00;99.90
19622;DHT22;9958;33.196;-97.114;2024-01-15T10:03:44;-11.00;99.90
19622;DHT22;9958;33.196;-97.114;2024-01-15T10:06:16;-11.10;99.90
19622;DHT22;9958;33.196;-97.114;2024-01-15T10:08:48;-11.00;99.90
19622;DHT22;9958;33.196;-97.114;2024-01-15T10:11:18;-11.10;99.90
19622;DHT22;9958;33.196;-97.114;2024-01-15T10:13:47;-11.00;99.90
19622;DHT22;9958;33.196;-97.114;2024-01-15T10:16:18;-11.10;99.90
19622;DHT22;9958;33.196;-97.114;2024-01-15T10:18:48;-11.10;99.90
19622;DHT22;9958;33.196;-97.114;2024-01-15T10:21:16;-11.00;99.90
19622;DHT22;9958;33.196;-97.114;2024-01-15T10:23:45;-11.10;99.90
19622;DHT22;9958;33.196;-97.114;2024-01-15T10:26:13;-11.10;99.90
19622;DHT22;9958;33.196;-97.114;2024-01-15T10:28:43;-11.10;99.90
19622;DHT22;9958;33.196;-97.114;2024-01-15T10:31:12;-11.20;99.90
19622;DHT22;9958;33.196;-97.114;2024-01-15T10:33:40;-11.10;99.90
19622;DHT22;9958;33.196;-97.114;2024-01-15T10:36:10;-11.10;99.90
19622;DHT22;9958;33.196;-97.114;2024-01-15T10:38:38;-11.10;99.90
19622;DHT22;9958;33.196;-97.114;2024-01-15T10:41:07;-11.10;99.90
19622;DHT22;9958;33.196;-97.114;2024-01-15T10:43:35;-11.10;99.90
19622;DHT22;9958;33.196;-97.114;2024-01-15T10:46:05;-11.00;99.90
19622;DHT22;9958;33.196;-97.114;2024-01-15T10:48:34;-11.00;99.90
19622;DHT22;9958;33.196;-97.114;2024-01-15T10:51:02;-11.10;99.90
19622;DHT22;9958;33.196;-97.114;2024-01-15T10:53:39;-11.00;99.90
19622;DHT22;9958;33.196;-97.114;2024-01-15T10:56:08;-11.00;99.90
19622;DHT22;9958;33.196;-97.114;2024-01-15T10:58:40;-11.00;99.90
19622;DHT22;9958;33.196;-97.114;2024-01-15T11:01:11;-11.00;99.90
19622;DHT22;9958;33.196;-97.114;2024-01-15T11:03:39;-11.00;99.90
19622;DHT22;9958;33.196;-97.114;2024-01-15T11:06:16;-11.00;99.90
19622;DHT22;9958;33.196;-97.114;2024-01-15T11:08:47;-11.00;99.90
19622;DHT22;9958;33.196;-97.114;2024-01-15T11:11:16;-11.00;99.90
19622;DHT22;9958;33.196;-97.114;2024-01-15T11:13:47;-10.90;99.90
19622;DHT22;9958;33.196;-97.114;2024-01-15T11:16:21;-11.00;99.90
19622;DHT22;9958;33.196;-97.114;2024-01-15T11:19:02;-10.90;99.90
19622;DHT22;9958;33.196;-97.114;2024-01-15T11:21:32;-10.90;99.90
19622;DHT22;9958;33.196;-97.114;2024-01-15T11:24:02;-10.90;99.90
19622;DHT22;9958;33.196;-97.114;2024-01-15T11:26:35;-10.90;99.90
19622;DHT22;9958;33.196;-97.114;2024-01-15T11:29:05;-10.90;99.90
19622;DHT22;9958;33.196;-97.114;2024-01-15T11:31:58;-10.80;99.90
19622;DHT22;9958;33.196;-97.114;2024-01-15T11:34:55;-10.80;99.90
19622;DHT22;9958;33.196;-97.114;2024-01-15T11:37:29;-10.80;99.90
19622;DHT22;9958;33.196;-97.114;2024-01-15T11:40:02;-10.80;99.90
19622;DHT22;9958;33.196;-97.114;2024-01-15T11:42:31;-10.80;99.90
19622;DHT22;9958;33.196;-97.114;2024-01-15T11:45:00;-10.80;99.90
19622;DHT22;9958;33.196;-97.114;2024-01-15T11:48:11;-10.80;99.90
19622;DHT22;9958;33.196;-97.114;2024-01-15T11:50:43;-10.90;99.90
19622;DHT22;9958;33.196;-97.114;2024-01-15T11:53:17;-10.90;99.90
19622;DHT22;9958;33.196;-97.114;2024-01-15T11:55:46;-10.90;99.90
19622;DHT22;9958;33.196;-97.114;2024-01-15T11:58:15;-10.90;99.90
19622;DHT22;9958;33.196;-97.114;2024-01-15T12:00:45;-10.90;99.90
19622;DHT22;9958;33.196;-97.114;2024-01-15T12:03:17;-10.80;99.90
19622;DHT22;9958;33.196;-97.114;2024-01-15T12:05:45;-10.80;99.90
19622;DHT22;9958;33.196;-97.114;2024-01-15T12:08:14;-10.80;99.90
19622;DHT22;9958;33.196;-97.114;2024-01-15T12:10:42;-10.90;99.90
19622;DHT22;9958;33.196;-97.114;2024-01-15T12:13:12;-10.90;99.90
19622;DHT22;9958;33.196;-97.114;2024-01-15T12:15:41;-10.90;99.90
19622;DHT22;9958;33.196;-97.114;2024-01-15T12:18:10;-10.90;99.90
19622;DHT22;9958;33.196;-97.114;2024-01-15T12:20:41;-10.90;99.90
19622;DHT22;9958;33.196;-97.114;2024-01-15T12:23:10;-10.90;99.90
19622;DHT22;9958;33.196;-97.114;2024-01-15T12:25:39;-10.90;99.90
19622;DHT22;9958;33.196;-97.114;2024-01-15T12:28:08;-10.90;99.90
19622;DHT22;9958;33.196;-97.114;2024-01-15T12:30:36;-10.90;99.90
19622;DHT22;9958;33.196;-97.114;2024-01-15T12:33:06;-11.00;99.60
19622;DHT22;9958;33.196;-97.114;2024-01-15T12:35:35;-11.00;99.30
19622;DHT22;9958;33.196;-97.114;2024-01-15T12:38:05;-11.00;98.90
19622;DHT22;9958;33.196;-97.114;2024-01-15T12:40:34;-11.00;98.80
19622;DHT22;9958;33.196;-97.114;2024-01-15T12:43:02;-11.00;98.60
19622;DHT22;9958;33.196;-97.114;2024-01-15T12:45:31;-11.00;98.20
19622;DHT22;9958;33.196;-97.114;2024-01-15T12:47:59;-11.00;98.00
19622;DHT22;9958;33.196;-97.114;2024-01-15T12:50:29;-11.00;97.50
19622;DHT22;9958;33.196;-97.114;2024-01-15T12:52:57;-11.10;96.90
19622;DHT22;9958;33.196;-97.114;2024-01-15T12:55:28;-11.10;97.00
19622;DHT22;9958;33.196;-97.114;2024-01-15T12:57:56;-11.10;96.70
19622;DHT22;9958;33.196;-97.114;2024-01-15T13:00:25;-11.10;96.70
19622;DHT22;9958;33.196;-97.114;2024-01-15T13:02:53;-11.10;96.60
19622;DHT22;9958;33.196;-97.114;2024-01-15T13:05:23;-11.10;96.60
19622;DHT22;9958;33.196;-97.114;2024-01-15T13:07:53;-11.10;96.90
19622;DHT22;9958;33.196;-97.114;2024-01-15T13:10:21;-11.10;96.80
19622;DHT22;9958;33.196;-97.114;2024-01-15T13:12:52;-11.00;96.60
19622;DHT22;9958;33.196;-97.114;2024-01-15T13:15:21;-11.10;96.40
19622;DHT22;9958;33.196;-97.114;2024-01-15T13:17:49;-11.00;96.00
19622;DHT22;9958;33.196;-97.114;2024-01-15T13:20:17;-11.00;95.90
19622;DHT22;9958;33.196;-97.114;2024-01-15T13:22:46;-11.00;95.90
19622;DHT22;9958;33.196;-97.114;2024-01-15T13:25:14;-11.10;95.60
19622;DHT22;9958;33.196;-97.114;2024-01-15T13:27:42;-11.10;95.10
19622;DHT22;9958;33.196;-97.114;2024-01-15T13:30:13;-11.10;95.30
19622;DHT22;9958;33.196;-97.114;2024-01-15T13:32:42;-11.00;95.50
19622;DHT22;9958;33.196;-97.114;2024-01-15T13:35:10;-11.10;95.50
19622;DHT22;9958;33.196;-97.114;2024-01-15T13:37:39;-11.00;95.70
19622;DHT22;9958;33.196;-97.114;2024-01-15T13:40:09;-11.00;95.60
19622;DHT22;9958;33.196;-97.114;2024-01-15T13:42:42;-11.00;95.80
19622;DHT22;9958;33.196;-97.114;2024-01-15T13:45:12;-11.00;95.70
19622;DHT22;9958;33.196;-97.114;2024-01-15T13:47:41;-11.00;95.30
19622;DHT22;9958;33.196;-97.114;2024-01-15T13:50:10;-11.00;95.20
19622;DHT22;9958;33.196;-97.114;2024-01-15T13:52:38;-11.00;95.10
19622;DHT22;9958;33.196;-97.114;2024-01-15T13:55:07;-11.00;95.10
19622;DHT22;9958;33.196;-97.114;2024-01-15T13:57:35;-11.00;95.30
19622;DHT22;9958;33.196;-97.114;2024-01-15T14:00:04;-11.00;95.20
19622;DHT22;9958;33.196;-97.114;2024-01-15T14:02:39;-11.00;95.20
19622;DHT22;9958;33.196;-97.114;2024-01-15T14:05:07;-11.00;95.20
19622;DHT22;9958;33.196;-97.114;2024-01-15T14:07:35;-11.00;94.90
19622;DHT22;9958;33.196;-97.114;2024-01-15T14:10:05;-11.00;94.90
19622;DHT22;9958;33.196;-97.114;2024-01-15T14:12:34;-11.00;94.80
19622;DHT22;9958;33.196;-97.114;2024-01-15T14:15:04;-10.90;94.90
19622;DHT22;9958;33.196;-97.114;2024-01-15T14:17:32;-10.90;94.90
19622;DHT22;9958;33.196;-97.114;2024-01-15T14:20:02;-10.90;94.90
19622;DHT22;9958;33.196;-97.114;2024-01-15T14:22:31;-10.80;94.90
19622;DHT22;9958;33.196;-97.114;2024-01-15T14:25:00;-10.80;94.60
19622;DHT22;9958;33.196;-97.114;2024-01-15T14:27:28;-10.80;94.30
19622;DHT22;9958;33.196;-97.114;2024-01-15T14:29:56;-10.80;93.90
19622;DHT22;9958;33.196;-97.114;2024-01-15T14:32:25;-10.80;93.70
19622;DHT22;9958;33.196;-97.114;2024-01-15T14:34:53;-10.80;93.70
19622;DHT22;9958;33.196;-97.114;2024-01-15T14:37:24;-10.80;94.30
19622;DHT22;9958;33.196;-97.114;2024-01-15T14:39:52;-10.70;94.40
19622;DHT22;9958;33.196;-97.114;2024-01-15T14:42:21;-10.70;94.20
19622;DHT22;9958;33.196;-97.114;2024-01-15T14:44:50;-10.70;93.70
19622;DHT22;9958;33.196;-97.114;2024-01-15T14:47:18;-10.60;94.10
19622;DHT22;9958;33.196;-97.114;2024-01-15T14:49:50;-10.60;93.80
19622;DHT22;9958;33.196;-97.114;2024-01-15T14:52:18;-10.60;93.60
19622;DHT22;9958;33.196;-97.114;2024-01-15T14:54:49;-10.60;93.30
19622;DHT22;9958;33.196;-97.114;2024-01-15T14:57:17;-10.70;93.50
19622;DHT22;9958;33.196;-97.114;2024-01-15T14:59:46;-10.60;93.70
19622;DHT22;9958;33.196;-97.114;2024-01-15T15:02:14;-10.60;93.50
19622;DHT22;9958;33.196;-97.114;2024-01-15T15:04:42;-10.60;93.30
19622;DHT22;9958;33.196;-97.114;2024-01-15T15:07:11;-10.60;93.20
19622;DHT22;9958;33.196;-97.114;2024-01-15T15:09:39;-10.50;93.00
19622;DHT22;9958;33.196;-97.114;2024-01-15T15:12:09;-10.50;93.30
19622;DHT22;9958;33.196;-97.114;2024-01-15T15:14:37;-10.50;92.90
19622;DHT22;9958;33.196;-97.114;2024-01-15T15:17:06;-10.50;92.60